TORONTO ISLAND, Ontario

6:22 AM EDT on March 27, 2017 (GMT -0400)
Toronto | | Change Station

Elev 0 ft 43.62 °N, 79.38 °W | Updated 10 minutes ago

Overcast
Overcast
44.6 °F
Feels Like 45 °F
N
1.2
Wind Variable Wind from NW
Gusts 3.7 mph

Today
High -- | Low -- °F
--% Chance of Precip.
Yesterday
High -- | Low -- °F
Precip. -- in
Pressure 29.88 in
Visibility 4.0 miles
Clouds Overcast 1100 ft
Windchill 45 °F
Dew Point 42 °F
Humidity 89%
Rainfall Not available.
Snow Depth Not available.
7:07 AM 7:38 PM
Waning Crescent, 1% visible
METAR CYTZ 271000Z AUTO 07008KT 4SM BR OVC011 05/05 A2987 RMK SLP119
Pressure 29.88 in
Visibility 4.0 miles
Clouds Overcast 1100 ft
Windchill 45 °F
Dew Point 42 °F
Humidity 89%
Rainfall Not available.
Snow Depth Not available.
7:07 AM 7:38 PM
Waning Crescent, 1% visible
METAR CYTZ 271000Z AUTO 07008KT 4SM BR OVC011 05/05 A2987 RMK SLP119

Get Severe Weather Alerts

Thanks for signing up!

Be on the lookout for a verification email in your inbox.

You'll start receiving the daily forecast at 8 AM.

×

10-Day Weather Forecast

Almanac

Astronomy

Mar. 27, 2017 Rise Set
Actual Time
Civil Twilight
Nautical Twilight
Astronomical Twilight
Moon
Length of Visible Light
Length of Day
Tomorrow will be .
, % of the Moon is Illuminated

Today's Extremes

Country Highs Country Lows

Community

WunderPhotos

Upload Photos

1,962,540 photos uploaded!

WunderBlog® & News

Nearby

Air Quality

  Air Quality AQ Index Pollutant
Not available.

Snow Depth

Station Depth Elevation

Earthquake Activity

City Distance Mag. Time & Date
Minimum magnitude displayed is 2.5.

Earthquake Activity

City Distance Mag. Time & Date
Minimum magnitude displayed is 2.5.

Coastal Water Temperatures

Place Temperature

Stations

Nearby Weather Stations

Station Location Temp. Windchill Dew Point Humidity Wind Precip. Elev Updated Type
                   

Watches & Warnings

There are currently no watches in effect.